Aurora Springs, Missouri
Current Conditions -  °F | °C
As of 2:55 PM on Friday 31 Oct 2014 (Local Time) from KAIZ Reporting Station
Clear Clear  
Wind Chill: 40°   Ceiling: Unl
Heat Index: 45°   Visibility: 10mi
Dew Point: 19°   Wind: 9mph
Humidity: 37%   Direction: 360°N
Pressure: 30.37"   Gusts: 24mph
Location:  38.333°N, 92.5524°W
Report Text: KAIZ 311955Z AUTO 36008G21KT 10SM CLR 07/M07 A3037 RMK AO1
Loading
Personal Weather Stations






























Interactive Weather Map
Tropical Storm Tracking
New forecast layout! Learn more

10-Day Weather Forecast

Advertisements
Track Severe Weather on mobile